Time;durP1;ratioP1;P1;durP2;ratioP2;P2;SDS_P1;SDS_P2;PMS_P1;PMS_P2;Temp;Humidity;BMP_temperature;BMP_pressure;BME280_temperature;BME280_humidity;BME280_pressure;Samples;Min_cycle;Max_cycle;Signal;HPM_P1;HPM_P2
2024/01/25 00:04:21;;;;;;;3.30;1.90;;;23.20;51.90;;;;;;222267;1260;25374;-63
2024/01/25 00:09:26;;;;;;;2.00;1.50;;;23.10;51.70;;;;;;222355;1264;24202;-62
2024/01/25 00:14:30;;;;;;;2.70;1.60;;;23.10;51.80;;;;;;222351;1259;23715;-63
2024/01/25 00:19:37;;;;;;;2.30;1.40;;;23.00;51.80;;;;;;222455;1253;22762;-63
2024/01/25 00:24:42;;;;;;;2.70;1.50;;;23.00;51.90;;;;;;222049;1257;24988;-64
2024/01/25 00:29:46;;;;;;;2.20;1.70;;;23.00;52.00;;;;;;222235;1263;23431;-63
2024/01/25 00:34:54;;;;;;;3.10;1.50;;;22.90;52.00;;;;;;222453;1260;22629;-63
2024/01/25 00:39:59;;;;;;;3.00;1.50;;;22.80;52.40;;;;;;222380;1264;22521;-61
2024/01/25 00:45:04;;;;;;;2.80;1.40;;;22.80;52.10;;;;;;222604;1267;22654;-62
2024/01/25 00:50:09;;;;;;;3.70;1.40;;;22.70;52.20;;;;;;222531;1256;24869;-61
2024/01/25 00:55:15;;;;;;;2.20;1.40;;;22.70;52.30;;;;;;222400;1260;25400;-62
2024/01/25 01:00:20;;;;;;;2.70;1.60;;;22.70;52.20;;;;;;222580;1267;24199;-61
2024/01/25 01:05:25;;;;;;;2.00;1.60;;;22.70;52.20;;;;;;222599;1262;22630;-62
2024/01/25 01:10:30;;;;;;;3.10;1.50;;;22.70;52.60;;;;;;222973;1264;23569;-62
2024/01/25 01:15:34;;;;;;;2.40;1.40;;;22.60;52.00;;;;;;222446;1263;24197;-64
2024/01/25 01:20:39;;;;;;;2.30;1.70;;;22.70;51.80;;;;;;222297;1264;25304;-63
2024/01/25 01:25:44;;;;;;;2.80;1.50;;;22.80;51.70;;;;;;222433;1262;25272;-63
2024/01/25 01:30:48;;;;;;;1.60;1.20;;;23.00;51.50;;;;;;222312;1266;24676;-63
2024/01/25 01:35:53;;;;;;;2.60;1.20;;;23.10;51.20;;;;;;222639;1260;23937;-63
2024/01/25 01:40:58;;;;;;;2.10;1.40;;;23.00;51.10;;;;;;222418;1260;24385;-63
2024/01/25 01:46:10;;;;;;;1.60;1.10;;;23.10;51.10;;;;;;222312;1263;25280;-63
2024/01/25 01:51:15;;;;;;;2.20;1.40;;;23.00;51.30;;;;;;222591;1260;24207;-62
2024/01/25 01:56:20;;;;;;;2.30;1.50;;;23.00;51.30;;;;;;222495;1266;24172;-64
2024/01/25 02:01:25;;;;;;;1.80;1.10;;;23.00;51.30;;;;;;222512;1260;25227;-64
2024/01/25 02:06:30;;;;;;;2.40;1.10;;;22.90;51.90;;;;;;222697;1257;24343;-65
2024/01/25 02:11:35;;;;;;;2.10;1.30;;;22.90;51.60;;;;;;222515;1266;23379;-64
2024/01/25 02:16:43;;;;;;;1.40;1.10;;;22.80;51.60;;;;;;222437;1253;22538;-64
2024/01/25 02:21:48;;;;;;;1.70;1.20;;;22.80;51.50;;;;;;222361;1267;24405;-64
2024/01/25 02:26:53;;;;;;;0.90;0.80;;;22.80;51.50;;;;;;223080;1255;22532;-64
2024/01/25 02:31:58;;;;;;;2.20;1.10;;;22.80;51.50;;;;;;222978;1255;24193;-64
2024/01/25 02:37:03;;;;;;;2.50;1.30;;;22.80;51.60;;;;;;221649;1262;24202;-64
2024/01/25 02:42:08;;;;;;;3.20;1.10;;;22.70;51.50;;;;;;221286;1270;22525;-64
2024/01/25 02:47:15;;;;;;;1.80;1.20;;;22.70;52.00;;;;;;221037;1260;23493;-63
2024/01/25 02:52:20;;;;;;;2.00;1.10;;;22.60;51.70;;;;;;221414;1267;22721;-64
2024/01/25 02:57:25;;;;;;;2.00;1.20;;;22.60;52.10;;;;;;222197;1267;22541;-64
2024/01/25 03:02:31;;;;;;;2.60;1.20;;;22.70;51.50;;;;;;223107;1263;22555;-64
2024/01/25 03:07:35;;;;;;;1.80;1.10;;;22.80;52.20;;;;;;222482;1265;24375;-64
2024/01/25 03:12:40;;;;;;;1.30;1.10;;;23.00;51.10;;;;;;222287;1262;22523;-64
2024/01/25 03:17:44;;;;;;;1.50;1.20;;;23.00;51.30;;;;;;222487;1259;24238;-64
2024/01/25 03:22:49;;;;;;;2.00;1.10;;;23.10;50.80;;;;;;222364;1263;22770;-64
2024/01/25 03:27:56;;;;;;;1.70;1.10;;;23.20;50.70;;;;;;222352;1262;25421;-63
2024/01/25 03:33:00;;;;;;;1.10;0.80;;;23.20;50.70;;;;;;222716;1267;24381;-64
2024/01/25 03:38:05;;;;;;;2.30;0.90;;;23.10;50.60;;;;;;222911;1263;22577;-63
2024/01/25 03:43:09;;;;;;;1.00;0.90;;;23.00;51.10;;;;;;222238;1263;24197;-65
2024/01/25 03:48:24;;;;;;;2.00;1.10;;;23.00;50.90;;;;;;222328;1263;24204;-63
2024/01/25 03:53:28;;;;;;;1.30;1.00;;;22.90;51.20;;;;;;222973;1256;22724;-63
2024/01/25 03:58:32;;;;;;;1.30;1.00;;;22.80;50.90;;;;;;222321;1263;22540;-63
2024/01/25 04:03:38;;;;;;;2.30;1.10;;;22.80;51.40;;;;;;222161;1253;22547;-63
2024/01/25 04:08:43;;;;;;;2.00;1.00;;;22.80;50.90;;;;;;222528;1268;24226;-64
2024/01/25 04:13:47;;;;;;;1.90;1.00;;;22.80;51.10;;;;;;221420;1261;22562;-63
2024/01/25 04:18:52;;;;;;;2.50;1.30;;;22.80;51.00;;;;;;221488;1258;25213;-64
2024/01/25 04:23:56;;;;;;;2.00;1.20;;;22.70;51.10;;;;;;221598;1270;22514;-64
2024/01/25 04:29:01;;;;;;;2.10;1.20;;;22.70;51.30;;;;;;221910;1260;24197;-63
2024/01/25 04:34:05;;;;;;;2.30;0.90;;;22.60;51.10;;;;;;222402;1264;24759;-63
2024/01/25 04:39:11;;;;;;;1.00;0.80;;;22.70;51.00;;;;;;222367;1259;24193;-64
2024/01/25 04:44:16;;;;;;;1.40;1.00;;;22.80;51.00;;;;;;222325;1263;25270;-64
2024/01/25 04:49:20;;;;;;;1.00;0.80;;;22.80;50.70;;;;;;222580;1260;22518;-62
2024/01/25 04:54:25;;;;;;;3.10;0.90;;;23.00;50.70;;;;;;222330;1266;25442;-62
2024/01/25 04:59:29;;;;;;;2.10;0.90;;;23.10;50.20;;;;;;222390;1260;24331;-63
2024/01/25 05:04:35;;;;;;;1.30;0.90;;;23.10;50.20;;;;;;222303;1252;23142;-63
2024/01/25 05:09:39;;;;;;;1.20;0.80;;;23.10;50.30;;;;;;222375;1252;22521;-64
2024/01/25 05:14:44;;;;;;;1.10;0.80;;;23.10;49.70;;;;;;222286;1248;23918;-62
2024/01/25 05:19:51;;;;;;;2.50;1.30;;;23.10;50.20;;;;;;222404;1267;23015;-63
2024/01/25 05:24:56;;;;;;;1.70;0.90;;;23.00;50.20;;;;;;222255;1262;22534;-63
2024/01/25 05:30:00;;;;;;;1.80;1.10;;;23.00;50.60;;;;;;222524;1266;22538;-64
2024/01/25 05:35:10;;;;;;;2.30;2.00;;;22.90;50.30;;;;;;222429;1266;24194;-64
2024/01/25 05:40:14;;;;;;;0.90;0.80;;;22.80;50.60;;;;;;222517;1267;25259;-63
2024/01/25 05:45:21;;;;;;;1.50;1.10;;;22.80;50.50;;;;;;221825;1262;351569;-63
2024/01/25 05:50:26;;;;;;;0.90;0.70;;;22.80;50.60;;;;;;222297;1261;24206;-64
2024/01/25 05:55:31;;;;;;;2.20;0.90;;;22.80;50.60;;;;;;223767;1260;24196;-63
2024/01/25 06:00:35;;;;;;;1.20;0.90;;;22.80;50.40;;;;;;222348;1262;22527;-64
2024/01/25 06:05:41;;;;;;;1.40;0.90;;;22.70;50.60;;;;;;223257;1267;25533;-64
2024/01/25 06:10:46;;;;;;;1.80;0.90;;;22.70;50.70;;;;;;222441;1261;25492;-64
2024/01/25 06:15:50;;;;;;;1.50;1.20;;;22.60;51.00;;;;;;222559;1254;22540;-63
2024/01/25 06:20:55;;;;;;;1.30;0.90;;;22.60;51.00;;;;;;222417;1266;22513;-64
2024/01/25 06:26:00;;;;;;;1.10;0.80;;;22.60;51.10;;;;;;222378;1260;22536;-64
2024/01/25 06:31:05;;;;;;;1.40;0.80;;;22.60;50.80;;;;;;228243;1262;25853;-64
2024/01/25 06:36:09;;;;;;;0.90;0.70;;;22.80;50.80;;;;;;222398;1244;24247;-60
2024/01/25 06:41:18;;;;;;;1.60;0.90;;;22.70;50.60;;;;;;222224;1252;22583;-59
2024/01/25 06:46:23;;;;;;;2.00;1.10;;;22.60;51.70;;;;;;223410;1261;22568;-57
2024/01/25 06:51:27;;;;;;;3.90;1.00;;;22.50;52.60;;;;;;222506;1268;24296;-59
2024/01/25 06:56:33;;;;;;;1.80;1.20;;;22.50;51.60;;;;;;222374;1265;24252;-58
2024/01/25 07:01:37;;;;;;;2.00;1.10;;;22.50;51.80;;;;;;222401;1248;23666;-56
2024/01/25 07:06:42;;;;;;;2.30;1.30;;;22.70;52.20;;;;;;222555;1264;22604;-55
2024/01/25 07:11:47;;;;;;;3.40;1.30;;;22.90;51.50;;;;;;222236;1263;22520;-56
2024/01/25 07:16:51;;;;;;;1.60;0.90;;;23.10;52.30;;;;;;222061;1260;25132;-57
2024/01/25 07:21:55;;;;;;;3.50;1.10;;;23.10;51.40;;;;;;222109;1263;25216;-57
2024/01/25 07:26:59;;;;;;;2.30;1.20;;;23.10;52.00;;;;;;223556;1256;22580;-58
2024/01/25 07:32:04;;;;;;;6.30;1.00;;;23.10;52.60;;;;;;222260;1260;22676;-57
2024/01/25 07:37:11;;;;;;;4.80;1.60;;;23.00;52.00;;;;;;227839;1266;22580;-57
2024/01/25 07:42:15;;;;;;;5.80;1.30;;;23.10;52.50;;;;;;223269;1267;22521;-57
2024/01/25 07:47:20;;;;;;;7.70;1.60;;;23.00;52.90;;;;;;222220;1257;26526;-57
2024/01/25 07:52:25;;;;;;;4.90;1.20;;;23.00;52.60;;;;;;222896;1255;22530;-57
2024/01/25 07:57:33;;;;;;;5.60;1.30;;;22.90;53.40;;;;;;222822;1262;23913;-57
2024/01/25 08:02:40;;;;;;;2.00;1.00;;;22.80;52.20;;;;;;225783;1264;22511;-59
2024/01/25 08:07:46;;;;;;;3.10;1.40;;;22.80;52.00;;;;;;223161;1267;25400;-58
2024/01/25 08:12:51;;;;;;;3.90;1.10;;;22.70;52.00;;;;;;222443;1260;22522;-58
2024/01/25 08:18:09;;;;;;;8.20;3.70;;;22.60;52.30;;;;;;222299;1264;23583;-57
2024/01/25 08:23:13;;;;;;;3.30;1.00;;;22.60;51.70;;;;;;222404;1267;24192;-58
2024/01/25 08:28:19;;;;;;;3.70;1.10;;;22.60;51.60;;;;;;222502;1264;24199;-58
2024/01/25 08:33:25;;;;;;;3.10;1.00;;;22.60;51.60;;;;;;222568;1267;22677;-58
2024/01/25 08:38:29;;;;;;;4.00;1.30;;;22.60;51.30;;;;;;222985;1256;27105;-59
2024/01/25 08:43:34;;;;;;;2.90;0.90;;;22.50;51.50;;;;;;222482;1260;24243;-58
2024/01/25 08:48:39;;;;;;;2.90;1.10;;;22.60;51.40;;;;;;222825;1265;22598;-59
2024/01/25 08:53:44;;;;;;;2.70;1.30;;;22.70;50.70;;;;;;222506;1268;22629;-59
2024/01/25 08:58:50;;;;;;;1.30;1.00;;;22.80;50.90;;;;;;222660;1263;24214;-58
2024/01/25 09:03:54;;;;;;;2.10;1.00;;;23.00;50.20;;;;;;222406;1259;22524;-59
2024/01/25 09:08:59;;;;;;;2.60;1.10;;;23.10;49.50;;;;;;222392;1260;25449;-58
2024/01/25 09:14:03;;;;;;;1.90;1.00;;;23.10;49.60;;;;;;222341;1266;24307;-57
2024/01/25 09:19:08;;;;;;;1.90;1.10;;;23.20;49.20;;;;;;223884;1265;22536;-57
2024/01/25 09:24:14;;;;;;;3.10;1.20;;;23.20;48.80;;;;;;223376;1265;22618;-57
2024/01/25 09:29:19;;;;;;;2.00;1.20;;;23.20;49.10;;;;;;222402;1265;22543;-60
2024/01/25 09:34:25;;;;;;;2.40;1.40;;;23.00;49.70;;;;;;224626;1267;22525;-58
2024/01/25 09:39:32;;;;;;;1.50;1.10;;;23.00;50.20;;;;;;226551;1255;24195;-58
2024/01/25 09:44:38;;;;;;;2.30;1.20;;;22.90;50.10;;;;;;222783;1264;24226;-58
2024/01/25 09:49:44;;;;;;;3.90;1.30;;;22.80;50.60;;;;;;222552;1265;25278;-57
2024/01/25 09:54:50;;;;;;;2.00;1.10;;;22.70;50.30;;;;;;222420;1267;22634;-57
2024/01/25 09:59:55;;;;;;;2.20;1.30;;;22.70;50.40;;;;;;222422;1266;22520;-58
2024/01/25 10:05:00;;;;;;;3.30;1.50;;;22.60;49.80;;;;;;222445;1265;24240;-58
2024/01/25 10:10:06;;;;;;;2.60;1.20;;;22.60;50.20;;;;;;222355;1267;22517;-57
2024/01/25 10:15:12;;;;;;;2.30;1.20;;;22.50;50.50;;;;;;222473;1265;23002;-55
2024/01/25 10:20:17;;;;;;;2.70;1.40;;;22.60;50.50;;;;;;222221;1267;24190;-58
2024/01/25 10:25:22;;;;;;;2.90;1.60;;;22.60;50.60;;;;;;222518;1265;25615;-57
2024/01/25 10:30:27;;;;;;;2.40;1.50;;;22.60;50.30;;;;;;222459;1267;25325;-58
2024/01/25 10:35:32;;;;;;;2.90;1.80;;;22.50;50.20;;;;;;222463;1260;26099;-57
2024/01/25 10:40:39;;;;;;;2.90;1.60;;;22.60;49.90;;;;;;222429;1265;23419;-57
2024/01/25 10:45:45;;;;;;;2.00;1.50;;;22.50;50.10;;;;;;222604;1262;22567;-57
2024/01/25 10:50:49;;;;;;;2.80;1.70;;;22.50;50.10;;;;;;222521;1260;22527;-58
2024/01/25 10:55:54;;;;;;;1.20;1.10;;;22.50;50.40;;;;;;224556;1253;23710;-58
2024/01/25 11:01:03;;;;;;;3.00;1.40;;;22.70;49.70;;;;;;222314;1266;25477;-57
2024/01/25 11:06:12;;;;;;;4.10;2.00;;;22.60;49.40;;;;;;222364;1266;22534;-56
2024/01/25 11:11:19;;;;;;;2.20;1.30;;;22.50;49.50;;;;;;222234;1266;22520;-56
2024/01/25 11:16:31;;;;;;;3.00;1.60;;;22.50;49.50;;;;;;222740;1268;24274;-57
2024/01/25 11:21:43;;;;;;;2.90;1.10;;;22.50;49.20;;;;;;222387;1266;22527;-57
2024/01/25 11:26:49;;;;;;;3.50;1.70;;;22.40;49.80;;;;;;222176;1267;22522;-57
2024/01/25 11:31:53;;;;;;;2.20;1.30;;;22.50;49.40;;;;;;222946;1265;22533;-58
2024/01/25 11:36:58;;;;;;;4.80;1.80;;;22.40;49.20;;;;;;222177;1268;22525;-57
2024/01/25 11:42:03;;;;;;;5.60;1.80;;;22.50;49.40;;;;;;222704;1266;24196;-55
2024/01/25 11:47:07;;;;;;;2.50;1.40;;;22.40;49.10;;;;;;222511;1266;26144;-58
2024/01/25 11:52:13;;;;;;;2.40;1.40;;;22.60;48.50;;;;;;222503;1257;24448;-58
2024/01/25 11:57:19;;;;;;;2.90;1.70;;;22.80;48.30;;;;;;222464;1259;26656;-57
2024/01/25 12:02:24;;;;;;;3.70;1.50;;;23.00;47.60;;;;;;222573;1263;24218;-58
2024/01/25 12:07:35;;;;;;;1.90;1.20;;;23.10;47.80;;;;;;222568;1266;22682;-58
2024/01/25 12:12:44;;;;;;;3.40;1.20;;;23.00;48.00;;;;;;222493;1260;22540;-59
2024/01/25 12:17:49;;;;;;;1.70;1.30;;;23.00;48.70;;;;;;222702;1266;24299;-58
2024/01/25 12:22:54;;;;;;;2.00;1.50;;;23.10;48.00;;;;;;223055;1260;22768;-58
2024/01/25 12:27:59;;;;;;;4.00;1.50;;;23.00;47.80;;;;;;222576;1264;24092;-56
2024/01/25 12:33:04;;;;;;;2.00;1.20;;;23.00;47.70;;;;;;222518;1267;24188;-58
2024/01/25 12:38:10;;;;;;;1.80;1.30;;;23.00;47.70;;;;;;223214;1266;22516;-57
2024/01/25 12:43:16;;;;;;;2.20;1.20;;;23.00;48.00;;;;;;222600;1266;24399;-57
2024/01/25 12:48:20;;;;;;;2.40;1.20;;;23.10;47.60;;;;;;222244;1255;23577;-56
2024/01/25 12:53:27;;;;;;;2.30;1.30;;;23.10;47.50;;;;;;222676;1265;22576;-57
2024/01/25 12:58:33;;;;;;;3.50;1.30;;;23.00;47.90;;;;;;222207;1265;25407;-57
2024/01/25 13:03:46;;;;;;;1.80;1.10;;;22.90;47.50;;;;;;222633;1267;22602;-58
2024/01/25 13:08:52;;;;;;;3.00;1.50;;;23.00;47.40;;;;;;222822;1260;22598;-59
2024/01/25 13:13:57;;;;;;;4.40;1.60;;;22.90;47.30;;;;;;222518;1266;22927;-58
2024/01/25 13:19:03;;;;;;;1.40;1.20;;;22.70;47.70;;;;;;222416;1266;24221;-57
2024/01/25 13:24:07;;;;;;;3.90;1.10;;;22.70;47.70;;;;;;222964;1264;24343;-57
2024/01/25 13:29:12;;;;;;;2.80;1.50;;;22.60;47.60;;;;;;222127;1262;22538;-58
2024/01/25 13:34:17;;;;;;;3.00;1.50;;;22.60;48.30;;;;;;222071;1263;25315;-58
2024/01/25 13:39:21;;;;;;;2.50;1.30;;;22.60;47.60;;;;;;222471;1252;24198;-57
2024/01/25 13:44:26;;;;;;;6.20;1.50;;;22.50;47.60;;;;;;222595;1265;23582;-58
2024/01/25 13:49:31;;;;;;;1.50;1.10;;;22.50;47.80;;;;;;222636;1260;22608;-59
2024/01/25 13:54:36;;;;;;;2.10;1.20;;;22.40;47.70;;;;;;222193;1266;24226;-56
2024/01/25 13:59:42;;;;;;;1.80;1.20;;;22.40;47.90;;;;;;222616;1265;24204;-57
2024/01/25 14:04:47;;;;;;;1.40;1.20;;;22.50;47.70;;;;;;222473;1267;24411;-58
2024/01/25 14:09:53;;;;;;;2.90;1.40;;;22.40;47.80;;;;;;222300;1268;22829;-59
2024/01/25 14:15:00;;;;;;;1.90;1.20;;;22.60;47.30;;;;;;222211;1268;25693;-56
2024/01/25 14:20:09;;;;;;;2.10;1.20;;;22.80;47.00;;;;;;222414;1244;23563;-56
2024/01/25 14:25:14;;;;;;;2.80;1.30;;;22.80;46.80;;;;;;222465;1265;24296;-58
2024/01/25 14:30:18;;;;;;;1.60;1.30;;;22.90;46.90;;;;;;222252;1248;25233;-57
2024/01/25 14:35:28;;;;;;;4.00;1.10;;;23.00;46.70;;;;;;222154;1267;22536;-56
2024/01/25 14:40:33;;;;;;;4.90;1.20;;;23.00;46.90;;;;;;222242;1267;22521;-57
2024/01/25 14:45:57;;;;;;;1.50;1.10;;;23.00;46.40;;;;;;222637;1267;22527;-58
2024/01/25 14:51:02;;;;;;;2.50;1.50;;;23.10;46.00;;;;;;222494;1267;22659;-58
2024/01/25 14:56:06;;;;;;;1.80;1.30;;;23.10;45.90;;;;;;222146;1266;22643;-58
2024/01/25 15:01:17;;;;;;;3.30;1.40;;;23.00;46.70;;;;;;222317;1260;22558;-60
2024/01/25 15:06:25;;;;;;;1.70;1.10;;;22.80;46.60;;;;;;222494;1266;22599;-57
2024/01/25 15:11:30;;;;;;;2.20;1.40;;;22.90;46.40;;;;;;222525;1268;24105;-56
2024/01/25 15:16:37;;;;;;;2.20;1.40;;;22.80;46.40;;;;;;222507;1268;25000;-58
2024/01/25 15:21:41;;;;;;;1.90;1.30;;;22.50;46.70;;;;;;222656;1266;25440;-58
2024/01/25 15:26:46;;;;;;;3.00;1.20;;;22.50;46.50;;;;;;222441;1267;22601;-58
2024/01/25 15:31:50;;;;;;;3.50;1.30;;;22.50;46.40;;;;;;222494;1262;24958;-57
2024/01/25 15:36:55;;;;;;;1.60;1.20;;;22.50;46.40;;;;;;222274;1264;25246;-58
2024/01/25 15:41:59;;;;;;;2.70;1.20;;;22.40;46.30;;;;;;222214;1260;24198;-57
2024/01/25 15:47:04;;;;;;;3.00;1.50;;;22.40;46.20;;;;;;222373;1266;24319;-57
2024/01/25 15:52:08;;;;;;;2.20;1.50;;;22.50;46.00;;;;;;222598;1266;24194;-58
2024/01/25 15:57:13;;;;;;;2.90;1.40;;;22.40;45.90;;;;;;222062;1267;22518;-56
2024/01/25 16:02:17;;;;;;;4.20;1.20;;;22.20;46.40;;;;;;222268;1250;22527;-58
2024/01/25 16:07:21;;;;;;;4.70;2.50;;;22.50;46.30;;;;;;222554;1263;26471;-60
2024/01/25 16:12:26;;;;;;;8.10;3.00;;;22.50;47.30;;;;;;222195;1260;22992;-58
2024/01/25 16:17:32;;;;;;;7.40;3.80;;;22.60;47.70;;;;;;222642;1266;26682;-59
2024/01/25 16:22:37;;;;;;;4.70;2.80;;;22.70;47.90;;;;;;221757;1251;22546;-55
2024/01/25 16:27:42;;;;;;;5.40;2.90;;;23.00;47.60;;;;;;222458;1264;22534;-56
2024/01/25 16:32:47;;;;;;;7.90;2.70;;;23.20;46.70;;;;;;222265;1267;22968;-56
2024/01/25 16:37:52;;;;;;;5.30;2.40;;;23.10;47.80;;;;;;222612;1266;22522;-55
2024/01/25 16:42:56;;;;;;;3.50;2.00;;;23.00;47.90;;;;;;222293;1267;22605;-58
2024/01/25 16:48:01;;;;;;;4.70;2.30;;;22.90;48.50;;;;;;222531;1265;25390;-57
2024/01/25 16:53:05;;;;;;;4.30;2.00;;;22.90;48.30;;;;;;222253;1263;22625;-58
2024/01/25 16:58:12;;;;;;;2.90;2.00;;;22.80;48.50;;;;;;221912;1261;22552;-53
2024/01/25 17:03:32;;;;;;;5.90;2.20;;;22.80;48.10;;;;;;222680;1253;23809;-61
2024/01/25 17:08:55;;;;;;;6.30;1.70;;;22.80;48.00;;;;;;222461;1264;22527;-58
2024/01/25 17:14:49;;;;;;;3.40;2.10;;;22.80;47.90;;;;;;214939;1301;542752;-57
2024/01/25 17:20:12;;;;;;;2.30;1.30;;;22.80;48.80;;;;;;219881;1268;22530;-58
2024/01/25 17:25:30;;;;;;;2.70;1.40;;;22.80;48.70;;;;;;218621;1281;2103708;-58
2024/01/25 17:30:45;;;;;;;4.20;1.60;;;22.70;49.10;;;;;;220097;1274;22803;-59
2024/01/25 17:36:00;;;;;;;2.00;1.40;;;22.70;48.40;;;;;;220090;1269;22544;-59
2024/01/25 17:41:04;;;;;;;5.10;1.40;;;22.70;48.40;;;;;;220527;1268;24243;-57
2024/01/25 17:46:09;;;;;;;4.60;1.90;;;22.60;48.40;;;;;;222027;1261;24199;-57
2024/01/25 17:51:15;;;;;;;22.80;5.30;;;22.60;48.10;;;;;;222515;1263;25650;-57
2024/01/25 17:56:19;;;;;;;2.40;1.70;;;22.50;47.70;;;;;;221718;1269;22520;-58
2024/01/25 18:01:24;;;;;;;3.20;1.70;;;22.60;47.80;;;;;;222442;1268;24358;-57
2024/01/25 18:06:30;;;;;;;2.40;2.00;;;22.80;48.00;;;;;;222564;1266;23195;-56
2024/01/25 18:11:34;;;;;;;5.50;2.30;;;23.10;48.50;;;;;;220991;1262;22538;-55
2024/01/25 18:16:38;;;;;;;11.70;2.70;;;23.20;48.90;;;;;;222413;1262;24227;-56
2024/01/25 18:21:44;;;;;;;9.40;2.90;;;23.30;48.60;;;;;;228319;1265;22527;-56
2024/01/25 18:26:49;;;;;;;10.40;3.40;;;23.40;48.60;;;;;;222759;1267;22539;-56
2024/01/25 18:31:53;;;;;;;6.90;3.00;;;23.30;48.70;;;;;;221705;1247;24169;-56
2024/01/25 18:36:58;;;;;;;8.00;3.50;;;23.20;48.60;;;;;;222670;1266;23964;-56
2024/01/25 18:42:03;;;;;;;8.20;2.80;;;23.10;48.50;;;;;;225928;1266;25562;-57
2024/01/25 18:47:10;;;;;;;5.50;2.60;;;23.20;48.80;;;;;;222236;1266;25467;-55
2024/01/25 18:52:15;;;;;;;13.00;3.10;;;23.10;48.40;;;;;;225324;1259;22786;-56
2024/01/25 18:57:32;;;;;;;7.10;2.70;;;23.00;48.70;;;;;;222069;1257;26523;-59
2024/01/25 19:02:52;;;;;;;5.40;2.50;;;23.00;48.20;;;;;;221157;1274;25508;-57
2024/01/25 19:07:59;;;;;;;4.20;2.50;;;22.90;48.10;;;;;;221236;1260;25305;-58
2024/01/25 19:13:12;;;;;;;5.60;2.50;;;22.80;48.60;;;;;;222234;1269;22581;-58
2024/01/25 19:18:25;;;;;;;4.70;2.10;;;22.80;48.00;;;;;;221200;1271;22694;-58
2024/01/25 19:23:29;;;;;;;6.50;2.60;;;22.80;47.30;;;;;;228433;1265;22639;-58
2024/01/25 19:28:35;;;;;;;10.40;2.40;;;22.90;47.60;;;;;;223465;1267;22534;-57
2024/01/25 19:33:45;;;;;;;5.70;2.20;;;23.00;47.80;;;;;;221732;1266;22526;-59
2024/01/25 19:39:03;;;;;;;8.40;2.50;;;23.00;47.50;;;;;;223421;1272;22645;-56
2024/01/25 19:44:07;;;;;;;5.20;2.60;;;23.20;47.30;;;;;;221551;1253;22768;-58
2024/01/25 19:49:12;;;;;;;6.50;2.50;;;23.10;47.50;;;;;;221665;1267;24187;-58
2024/01/25 19:54:17;;;;;;;6.60;2.10;;;23.10;48.00;;;;;;222125;1260;22659;-58
2024/01/25 19:59:21;;;;;;;6.20;2.30;;;23.00;48.10;;;;;;221213;1258;25318;-56
2024/01/25 20:04:26;;;;;;;2.50;1.80;;;23.20;49.20;;;;;;222099;1268;22517;-58
2024/01/25 20:09:30;;;;;;;4.50;2.20;;;23.10;49.10;;;;;;222395;1263;22570;-57
2024/01/25 20:14:35;;;;;;;14.70;3.40;;;23.00;49.10;;;;;;221974;1252;22525;-58
2024/01/25 20:19:39;;;;;;;8.40;2.80;;;23.00;52.90;;;;;;222024;1269;24344;-58
2024/01/25 20:24:44;;;;;;;7.90;2.90;;;23.00;52.10;;;;;;222151;1251;23183;-57
2024/01/25 20:29:50;;;;;;;6.10;2.40;;;23.00;52.30;;;;;;221888;1263;24323;-59
2024/01/25 20:35:03;;;;;;;12.70;2.30;;;23.00;52.30;;;;;;222365;1265;24188;-58
2024/01/25 20:40:15;;;;;;;10.10;2.80;;;22.90;52.40;;;;;;222672;1266;22523;-58
2024/01/25 20:45:21;;;;;;;11.40;2.40;;;23.10;52.60;;;;;;222315;1265;25454;-59
2024/01/25 20:50:26;;;;;;;9.50;2.90;;;23.00;52.30;;;;;;222307;1266;22530;-56
2024/01/25 20:55:41;;;;;;;12.40;2.60;;;23.00;52.80;;;;;;221981;1255;25687;-58
2024/01/25 21:00:46;;;;;;;14.10;2.90;;;22.90;52.10;;;;;;222381;1269;22521;-57
2024/01/25 21:05:51;;;;;;;5.20;2.90;;;23.00;51.50;;;;;;222322;1266;23654;-57
2024/01/25 21:10:57;;;;;;;9.40;2.10;;;23.00;51.70;;;;;;222167;1265;22535;-59
2024/01/25 21:16:13;;;;;;;6.50;2.70;;;22.80;51.30;;;;;;222389;1258;24229;-57
2024/01/25 21:21:17;;;;;;;8.90;2.10;;;22.70;51.70;;;;;;222532;1265;22790;-57
2024/01/25 21:26:22;;;;;;;5.50;2.30;;;22.60;51.60;;;;;;222141;1265;22810;-58
2024/01/25 21:31:27;;;;;;;9.00;2.40;;;22.80;51.10;;;;;;221961;1267;24212;-58
2024/01/25 21:36:31;;;;;;;5.50;2.00;;;22.90;51.00;;;;;;222098;1271;24219;-59
2024/01/25 21:41:36;;;;;;;7.90;2.90;;;23.20;50.50;;;;;;222120;1271;22528;-59
2024/01/25 21:46:41;;;;;;;4.50;2.00;;;23.40;49.80;;;;;;223078;1268;24178;-60
2024/01/25 21:51:46;;;;;;;9.50;3.70;;;23.60;49.50;;;;;;222117;1263;24266;-59
2024/01/25 21:56:51;;;;;;;6.50;2.20;;;23.60;49.40;;;;;;222210;1258;22617;-56
2024/01/25 22:01:55;;;;;;;6.00;2.40;;;23.40;53.90;;;;;;222649;1268;22491;-58
2024/01/25 22:07:00;;;;;;;3.00;1.80;;;23.40;52.50;;;;;;223271;1262;22648;-53
2024/01/25 22:12:06;;;;;;;4.70;2.10;;;23.50;52.40;;;;;;227908;1266;22546;-55
2024/01/25 22:17:21;;;;;;;7.60;2.30;;;23.60;52.00;;;;;;228671;1269;22531;-57
2024/01/25 22:22:42;;;;;;;4.50;2.30;;;23.60;51.60;;;;;;228527;1264;22640;-57
2024/01/25 22:28:00;;;;;;;6.70;2.10;;;23.60;51.50;;;;;;228574;1269;22898;-56
2024/01/25 22:33:14;;;;;;;2.40;1.50;;;23.60;51.70;;;;;;227575;1270;22990;-57
2024/01/25 22:38:21;;;;;;;4.10;2.00;;;23.40;51.80;;;;;;227598;1274;22583;-56
2024/01/25 22:43:27;;;;;;;3.10;1.90;;;23.30;52.00;;;;;;227494;1268;22496;-55
2024/01/25 22:48:34;;;;;;;3.70;1.80;;;23.30;52.60;;;;;;227721;1271;22147;-56
2024/01/25 22:53:39;;;;;;;4.30;1.80;;;23.30;51.90;;;;;;226762;1274;22539;-52
2024/01/25 22:58:43;;;;;;;4.60;2.10;;;23.20;52.00;;;;;;221874;1270;24417;-56
2024/01/25 23:03:48;;;;;;;4.90;2.30;;;23.10;52.30;;;;;;221809;1270;22759;-55
2024/01/25 23:08:52;;;;;;;5.40;1.80;;;22.90;52.60;;;;;;221778;1264;23710;-55
2024/01/25 23:13:58;;;;;;;5.00;1.80;;;22.90;53.10;;;;;;223083;1255;24250;-52
2024/01/25 23:19:02;;;;;;;3.80;1.70;;;23.00;52.50;;;;;;221595;1265;22716;-56
2024/01/25 23:24:07;;;;;;;2.90;1.90;;;23.10;52.20;;;;;;221618;1262;24766;-57
2024/01/25 23:29:11;;;;;;;2.40;1.70;;;23.30;51.80;;;;;;221794;1270;22527;-57
2024/01/25 23:34:17;;;;;;;3.70;1.90;;;23.40;51.80;;;;;;221663;1271;25486;-58
2024/01/25 23:39:21;;;;;;;5.20;1.70;;;23.40;51.40;;;;;;221791;1269;22546;-58
2024/01/25 23:44:26;;;;;;;3.60;1.70;;;23.30;51.60;;;;;;221949;1264;25100;-57
2024/01/25 23:49:30;;;;;;;4.20;2.10;;;23.30;51.50;;;;;;222076;1263;22531;-57
2024/01/25 23:54:35;;;;;;;2.90;1.70;;;23.30;51.80;;;;;;221760;1269;24211;-57
2024/01/25 23:59:39;;;;;;;3.60;1.90;;;23.10;51.70;;;;;;221729;1265;22533;-58
